Time;durP1;ratioP1;P1;durP2;ratioP2;P2;SDS_P1;SDS_P2;PMS_P1;PMS_P2;Temp;Humidity;BMP_temperature;BMP_pressure;BME280_temperature;BME280_humidity;BME280_pressure;Samples;Min_cycle;Max_cycle;Signal;HPM_P1;HPM_P2
2023/06/04 00:00:18;;;;;;;8.27;4.50;;;14.10;74.50;;;;;;5031098;28;20217;-80
2023/06/04 00:03:07;;;;;;;8.52;4.72;;;14.20;75.20;;;;;;5027814;28;20743;-82
2023/06/04 00:06:02;;;;;;;10.32;4.72;;;14.10;75.60;;;;;;5059616;28;20403;-81
2023/06/04 00:08:50;;;;;;;7.30;4.68;;;14.10;75.60;;;;;;5060112;28;20730;-81
2023/06/04 00:11:39;;;;;;;10.32;4.50;;;14.10;75.80;;;;;;5050773;28;20885;-81
2023/06/04 00:14:28;;;;;;;8.15;4.63;;;14.10;75.80;;;;;;5051931;28;20242;-81
2023/06/04 00:17:17;;;;;;;9.18;4.70;;;14.10;76.00;;;;;;5044977;28;20311;-81
2023/06/04 00:20:07;;;;;;;7.97;4.68;;;13.90;76.40;;;;;;5067076;28;20216;-81
2023/06/04 00:22:57;;;;;;;8.07;4.55;;;13.90;76.30;;;;;;5050046;28;20318;-81
2023/06/04 00:25:46;;;;;;;8.38;4.78;;;13.90;75.90;;;;;;5057709;28;20271;-81
2023/06/04 00:28:38;;;;;;;9.52;4.70;;;13.80;76.20;;;;;;5062061;28;20228;-81
2023/06/04 00:31:27;;;;;;;7.18;4.50;;;13.90;76.30;;;;;;5058528;28;20204;-81
2023/06/04 00:34:17;;;;;;;9.10;4.57;;;13.80;76.00;;;;;;5046303;28;20799;-81
2023/06/04 00:37:06;;;;;;;11.80;4.40;;;13.70;75.70;;;;;;5048988;28;20225;-81
2023/06/04 00:39:57;;;;;;;8.95;4.55;;;13.60;75.90;;;;;;5065010;28;20275;-82
2023/06/04 00:42:46;;;;;;;9.73;4.03;;;13.70;77.10;;;;;;5032815;28;20563;-81
2023/06/04 00:45:35;;;;;;;6.78;4.28;;;13.60;76.50;;;;;;5053865;28;20307;-81
2023/06/04 00:48:27;;;;;;;7.28;4.80;;;13.40;76.80;;;;;;5061471;28;20228;-81
2023/06/04 00:51:16;;;;;;;9.35;4.50;;;13.40;75.90;;;;;;5054993;28;20305;-81
2023/06/04 00:54:08;;;;;;;7.35;4.78;;;13.40;75.60;;;;;;5046085;28;20228;-81
2023/06/04 00:57:02;;;;;;;7.07;4.35;;;13.50;75.50;;;;;;5055941;28;20232;-81
2023/06/04 00:59:52;;;;;;;6.88;4.25;;;13.40;76.30;;;;;;5053390;28;20231;-81
2023/06/04 01:02:45;;;;;;;6.70;4.78;;;13.50;76.00;;;;;;5052978;28;20232;-83
2023/06/04 01:05:38;;;;;;;6.82;4.35;;;13.60;75.30;;;;;;5053869;28;20595;-83
2023/06/04 01:08:28;;;;;;;6.28;4.32;;;13.30;75.00;;;;;;5058506;28;20298;-80
2023/06/04 01:11:17;;;;;;;7.85;3.88;;;13.40;76.00;;;;;;5059025;28;20265;-81
2023/06/04 01:14:10;;;;;;;8.55;4.55;;;13.50;75.40;;;;;;5062232;28;20220;-79
2023/06/04 01:17:02;;;;;;;5.47;3.85;;;13.40;74.10;;;;;;5055870;28;20268;-80
2023/06/04 01:20:19;;;;;;;8.18;4.00;;;13.10;75.00;;;;;;5055139;28;20236;-80
2023/06/04 01:23:24;;;;;;;9.40;4.10;;;13.20;75.40;;;;;;5053398;28;20649;-80
2023/06/04 01:26:14;;;;;;;7.38;3.90;;;13.10;75.30;;;;;;5055298;28;20251;-82
2023/06/04 01:29:03;;;;;;;11.23;3.72;;;13.10;75.00;;;;;;5067134;28;20223;-80
2023/06/04 01:31:54;;;;;;;7.72;3.70;;;13.20;75.50;;;;;;5062083;28;20310;-80
2023/06/04 01:34:46;;;;;;;9.35;3.60;;;13.20;75.40;;;;;;5070733;28;20224;-82
2023/06/04 01:37:38;;;;;;;5.20;3.78;;;13.30;75.30;;;;;;5063431;28;20308;-81
2023/06/04 01:40:27;;;;;;;7.07;4.07;;;13.10;74.70;;;;;;5051604;28;20751;-80
2023/06/04 01:43:16;;;;;;;8.20;4.15;;;12.90;75.50;;;;;;5061668;28;20220;-81
2023/06/04 01:46:05;;;;;;;5.22;3.75;;;12.70;76.20;;;;;;5053439;28;20270;-81
2023/06/04 01:48:56;;;;;;;5.68;3.47;;;12.50;76.40;;;;;;5063567;28;20247;-81
2023/06/04 01:51:44;;;;;;;5.85;3.10;;;12.60;76.70;;;;;;5067985;28;20297;-81
2023/06/04 01:54:33;;;;;;;4.93;3.38;;;12.50;76.10;;;;;;5062273;28;20721;-80
2023/06/04 01:57:22;;;;;;;5.20;3.35;;;12.50;76.40;;;;;;5057870;28;20232;-81
2023/06/04 02:00:13;;;;;;;7.63;3.17;;;12.80;75.80;;;;;;5063682;28;20652;-80
2023/06/04 02:03:02;;;;;;;8.10;3.20;;;12.60;75.90;;;;;;5060720;28;20655;-80
2023/06/04 02:05:52;;;;;;;5.40;3.10;;;12.80;75.40;;;;;;5054207;28;20231;-81
2023/06/04 02:08:42;;;;;;;5.13;2.72;;;12.60;75.90;;;;;;5051371;28;20915;-80
2023/06/04 02:11:31;;;;;;;9.05;3.28;;;12.50;75.80;;;;;;5055498;28;21087;-81
2023/06/04 02:14:20;;;;;;;3.85;2.80;;;12.70;76.30;;;;;;5054062;28;20212;-81
2023/06/04 02:17:12;;;;;;;5.35;3.50;;;12.90;76.10;;;;;;5061936;28;20225;-80
2023/06/04 02:20:01;;;;;;;4.75;3.22;;;12.90;75.40;;;;;;5049835;28;20213;-79
2023/06/04 02:22:52;;;;;;;5.80;3.10;;;13.00;76.20;;;;;;5060772;28;20224;-80
2023/06/04 02:25:41;;;;;;;6.15;3.50;;;13.10;75.70;;;;;;5063444;28;20683;-81
2023/06/04 02:28:30;;;;;;;5.05;3.22;;;12.90;75.20;;;;;;5062111;28;20765;-80
2023/06/04 02:31:19;;;;;;;4.93;3.33;;;12.90;75.40;;;;;;5045112;28;20228;-81
2023/06/04 02:34:07;;;;;;;5.90;3.50;;;12.90;75.30;;;;;;5048357;28;20703;-81
2023/06/04 02:36:56;;;;;;;7.40;3.90;;;12.70;75.50;;;;;;5056442;28;20224;-81
2023/06/04 02:39:46;;;;;;;4.80;3.00;;;12.70;75.70;;;;;;5059359;28;20224;-78
2023/06/04 02:42:35;;;;;;;4.63;3.25;;;12.60;76.20;;;;;;5063865;28;20255;-78
2023/06/04 02:45:24;;;;;;;8.48;3.05;;;12.70;75.90;;;;;;5058962;28;20229;-81
2023/06/04 02:48:13;;;;;;;7.03;3.05;;;12.70;75.20;;;;;;5055925;28;20234;-81
2023/06/04 02:51:02;;;;;;;5.20;2.92;;;12.50;77.60;;;;;;5044824;28;20699;-81
2023/06/04 02:53:51;;;;;;;5.28;2.80;;;12.50;77.50;;;;;;5047170;28;20244;-81
2023/06/04 02:56:43;;;;;;;7.40;2.97;;;12.70;78.20;;;;;;5068646;28;20327;-82
2023/06/04 02:59:32;;;;;;;6.15;3.22;;;12.80;79.00;;;;;;5042765;28;20216;-83
2023/06/04 03:02:21;;;;;;;7.13;2.88;;;12.90;77.60;;;;;;5037389;28;20281;-81
2023/06/04 03:05:12;;;;;;;4.25;2.88;;;;;;;;;;5055327;28;20223;-80
2023/06/04 03:08:03;;;;;;;6.20;3.00;;;12.80;74.90;;;;;;5076096;28;20215;-81
2023/06/04 03:10:54;;;;;;;5.57;2.90;;;12.70;75.60;;;;;;5051011;28;20236;-81
2023/06/04 03:13:44;;;;;;;5.90;3.22;;;12.90;75.80;;;;;;5081168;28;20247;-81
2023/06/04 03:16:33;;;;;;;7.20;2.92;;;12.80;75.60;;;;;;5052649;28;20224;-80
2023/06/04 03:19:21;;;;;;;6.93;3.08;;;12.70;75.90;;;;;;5063110;28;20257;-80
2023/06/04 03:22:11;;;;;;;7.18;2.83;;;12.70;75.50;;;;;;5064508;28;20216;-80
2023/06/04 03:24:59;;;;;;;5.68;2.60;;;12.30;75.60;;;;;;5054225;28;20231;-81
2023/06/04 03:27:48;;;;;;;5.60;2.38;;;12.40;76.90;;;;;;5065971;28;20231;-81
2023/06/04 03:30:40;;;;;;;4.45;2.50;;;12.40;76.50;;;;;;5038672;28;20315;-81
2023/06/04 03:33:29;;;;;;;6.05;2.75;;;12.50;76.40;;;;;;5060253;28;20766;-80
2023/06/04 03:36:18;;;;;;;3.63;2.40;;;12.60;76.40;;;;;;5078832;28;20281;-80
2023/06/04 03:39:07;;;;;;;4.40;2.58;;;12.70;75.70;;;;;;5050806;28;20227;-81
2023/06/04 03:41:57;;;;;;;4.07;2.83;;;12.50;76.00;;;;;;5069690;28;20224;-81
2023/06/04 03:44:46;;;;;;;4.28;2.70;;;12.70;77.10;;;;;;5052518;28;20288;-81
2023/06/04 03:47:39;;;;;;;4.10;2.67;;;12.60;76.30;;;;;;5048473;28;20247;-81
2023/06/04 03:50:29;;;;;;;5.68;2.55;;;12.30;76.70;;;;;;5039197;28;20227;-80
2023/06/04 03:53:18;;;;;;;3.85;2.60;;;12.50;77.60;;;;;;5056092;28;20220;-80
2023/06/04 03:56:07;;;;;;;4.63;2.42;;;12.70;77.60;;;;;;5045121;28;20260;-81
2023/06/04 03:58:56;;;;;;;3.92;2.50;;;12.80;76.60;;;;;;5049894;28;20247;-81
2023/06/04 04:01:45;;;;;;;7.30;3.08;;;12.80;77.00;;;;;;5054190;28;20274;-80
2023/06/04 04:04:36;;;;;;;6.13;3.33;;;12.70;78.10;;;;;;5075664;28;20223;-80
2023/06/04 04:07:25;;;;;;;6.22;3.03;;;12.90;77.00;;;;;;5042017;28;20253;-81
2023/06/04 04:10:14;;;;;;;5.07;2.60;;;13.00;77.00;;;;;;5045852;28;20277;-81
2023/06/04 04:13:03;;;;;;;6.97;3.20;;;13.20;77.40;;;;;;5050188;28;20313;-81
2023/06/04 04:15:55;;;;;;;4.63;3.00;;;13.20;77.10;;;;;;5037606;28;20237;-82
2023/06/04 04:18:45;;;;;;;5.50;2.90;;;13.40;77.20;;;;;;5048430;28;20770;-81
2023/06/04 04:21:36;;;;;;;7.80;3.13;;;13.60;76.60;;;;;;5065052;28;20228;-81
2023/06/04 04:24:26;;;;;;;4.57;2.90;;;13.40;75.20;;;;;;5053424;28;20220;-81
2023/06/04 04:27:22;;;;;;;4.07;2.63;;;13.40;75.90;;;;;;5067121;28;20305;-81
2023/06/04 04:30:14;;;;;;;6.90;2.65;;;13.30;76.00;;;;;;5060690;28;20243;-80
2023/06/04 04:33:06;;;;;;;6.13;3.05;;;13.60;76.70;;;;;;5067052;28;20269;-80
2023/06/04 04:36:00;;;;;;;5.03;2.80;;;13.70;75.80;;;;;;5063995;28;20241;-80
2023/06/04 04:38:53;;;;;;;6.55;2.80;;;13.70;75.70;;;;;;5062698;28;20231;-80
2023/06/04 04:41:49;;;;;;;7.80;2.75;;;13.90;75.10;;;;;;5065412;28;20217;-80
2023/06/04 04:44:38;;;;;;;6.85;2.90;;;14.10;75.00;;;;;;5041794;28;20250;-79
2023/06/04 04:47:27;;;;;;;4.70;2.60;;;14.40;75.60;;;;;;5072422;28;20230;-78
2023/06/04 04:50:16;;;;;;;6.65;2.42;;;14.50;75.40;;;;;;5049906;28;20300;-80
2023/06/04 04:53:08;;;;;;;6.45;3.08;;;14.60;74.50;;;;;;5076494;28;20234;-80
2023/06/04 04:55:59;;;;;;;7.03;2.30;;;14.70;74.70;;;;;;5047380;28;20224;-80
2023/06/04 04:58:50;;;;;;;5.53;2.72;;;14.70;74.70;;;;;;5061234;28;20220;-80
2023/06/04 05:01:40;;;;;;;4.68;2.50;;;14.80;73.90;;;;;;5073536;28;20263;-80
2023/06/04 05:04:29;;;;;;;4.90;2.60;;;14.80;73.50;;;;;;5049900;28;20217;-82
2023/06/04 05:07:19;;;;;;;3.20;2.20;;;15.00;75.00;;;;;;5041533;28;20628;-81
2023/06/04 05:10:09;;;;;;;4.00;2.35;;;15.10;73.90;;;;;;5051550;28;20226;-81
2023/06/04 05:13:01;;;;;;;6.57;2.63;;;15.30;73.70;;;;;;5063520;28;20213;-82
2023/06/04 05:15:58;;;;;;;4.03;2.67;;;15.60;74.50;;;;;;5052571;28;20281;-81
2023/06/04 05:18:51;;;;;;;5.22;2.78;;;15.60;73.80;;;;;;5072598;28;20238;-82
2023/06/04 05:21:44;;;;;;;4.93;2.70;;;15.80;73.80;;;;;;5053156;28;20224;-81
2023/06/04 05:24:33;;;;;;;5.43;2.40;;;15.90;73.80;;;;;;5052133;28;20247;-80
2023/06/04 05:27:25;;;;;;;5.97;2.60;;;15.90;71.70;;;;;;5055698;28;20281;-81
2023/06/04 05:30:16;;;;;;;4.68;2.30;;;15.90;72.50;;;;;;5059222;28;20232;-81
2023/06/04 05:33:05;;;;;;;7.50;2.85;;;16.30;71.30;;;;;;5063147;28;20212;-80
2023/06/04 05:35:57;;;;;;;3.85;2.45;;;16.70;72.10;;;;;;5063120;28;20228;-82
2023/06/04 05:38:56;;;;;;;4.18;2.75;;;17.00;70.50;;;;;;5059930;28;20227;-81
2023/06/04 05:41:51;;;;;;;4.47;2.25;;;16.90;69.50;;;;;;5065548;28;20231;-81
2023/06/04 05:44:40;;;;;;;4.10;2.20;;;16.80;70.40;;;;;;5083707;28;20224;-81
2023/06/04 05:47:33;;;;;;;6.38;2.25;;;16.80;71.50;;;;;;5063412;28;20235;-80
2023/06/04 05:50:22;;;;;;;4.20;2.00;;;;;;;;;;5061486;28;20228;-80
2023/06/04 05:53:11;;;;;;;4.72;2.00;;;16.50;66.60;;;;;;5038331;28;20308;-80
2023/06/04 05:56:00;;;;;;;6.45;1.95;;;16.60;67.70;;;;;;5066214;28;20220;-82
2023/06/04 05:58:53;;;;;;;2.50;1.70;;;16.50;68.50;;;;;;5079706;28;20807;-80
2023/06/04 06:01:44;;;;;;;5.22;2.20;;;16.80;68.60;;;;;;5073562;28;20729;-79
2023/06/04 06:04:35;;;;;;;2.97;1.85;;;16.80;67.10;;;;;;5058225;28;20217;-80
2023/06/04 06:07:24;;;;;;;3.28;1.90;;;17.00;67.60;;;;;;5059815;28;20235;-81
2023/06/04 06:10:13;;;;;;;3.22;1.80;;;17.10;67.60;;;;;;5058994;28;20217;-80
2023/06/04 06:13:02;;;;;;;3.75;1.95;;;17.10;67.10;;;;;;5058429;28;20220;-80
2023/06/04 06:15:52;;;;;;;2.90;1.60;;;17.10;66.60;;;;;;5061379;28;20263;-80
2023/06/04 06:18:41;;;;;;;3.92;2.15;;;17.10;66.80;;;;;;5069167;28;20273;-80
2023/06/04 06:21:32;;;;;;;3.70;1.77;;;17.40;66.20;;;;;;5053429;28;20253;-80
2023/06/04 06:24:21;;;;;;;4.97;1.77;;;17.50;66.30;;;;;;5075998;28;20288;-79
2023/06/04 06:27:12;;;;;;;3.25;1.73;;;17.60;66.30;;;;;;5051698;28;20691;-80
2023/06/04 06:30:02;;;;;;;2.45;1.40;;;17.80;65.50;;;;;;5078482;28;20223;-80
2023/06/04 06:32:51;;;;;;;3.38;2.00;;;18.00;66.00;;;;;;5075734;28;20224;-79
2023/06/04 06:35:46;;;;;;;2.33;1.60;;;18.10;64.90;;;;;;5066122;28;20234;-83
2023/06/04 06:38:36;;;;;;;2.80;1.40;;;18.00;64.30;;;;;;5079945;28;20220;-83
2023/06/04 06:41:26;;;;;;;1.80;1.15;;;18.20;66.00;;;;;;5071374;28;20216;-83
2023/06/04 06:44:14;;;;;;;5.47;1.45;;;18.90;64.10;;;;;;5087524;28;20352;-83
2023/06/04 06:47:03;;;;;;;2.20;1.40;;;19.20;62.40;;;;;;5091042;28;20325;-80
2023/06/04 06:49:52;;;;;;;5.57;1.50;;;19.20;61.60;;;;;;5094421;28;20223;-81
2023/06/04 06:52:41;;;;;;;1.88;1.30;;;18.80;60.70;;;;;;5070138;28;20250;-82
2023/06/04 06:55:31;;;;;;;2.53;1.23;;;18.80;62.00;;;;;;5076911;28;20215;-80
2023/06/04 06:58:20;;;;;;;2.08;1.20;;;19.00;64.60;;;;;;5059910;28;20231;-81
2023/06/04 07:01:09;;;;;;;2.92;1.00;;;19.20;62.30;;;;;;5051766;28;20246;-82
2023/06/04 07:03:58;;;;;;;2.33;1.48;;;19.40;62.90;;;;;;5080295;28;20557;-81
2023/06/04 07:06:46;;;;;;;3.63;1.23;;;19.60;62.90;;;;;;5083852;28;20659;-81
2023/06/04 07:09:36;;;;;;;2.85;1.40;;;19.70;61.10;;;;;;5079981;28;20229;-81
2023/06/04 07:12:26;;;;;;;1.40;0.98;;;20.00;60.00;;;;;;5060262;28;20694;-82
2023/06/04 07:15:14;;;;;;;2.95;1.15;;;20.10;59.90;;;;;;5065789;28;20686;-82
2023/06/04 07:18:03;;;;;;;1.17;1.00;;;20.30;59.00;;;;;;5065310;28;20255;-82
2023/06/04 07:20:55;;;;;;;2.22;0.80;;;20.70;58.60;;;;;;5085546;28;20276;-82
2023/06/04 07:23:47;;;;;;;2.63;1.20;;;20.90;57.40;;;;;;5063577;28;20721;-82
2023/06/04 07:26:36;;;;;;;2.30;1.20;;;20.70;56.10;;;;;;5044841;28;20334;-81
2023/06/04 07:29:26;;;;;;;2.72;1.05;;;21.10;57.30;;;;;;5041736;28;20362;-81
2023/06/04 07:32:15;;;;;;;1.58;0.93;;;21.60;55.30;;;;;;5081606;28;20349;-82
2023/06/04 07:35:05;;;;;;;3.45;1.05;;;22.10;52.90;;;;;;5075699;28;20224;-82
2023/06/04 07:37:53;;;;;;;3.28;0.90;;;22.70;54.80;;;;;;5079752;28;20246;-83
2023/06/04 07:40:42;;;;;;;2.35;1.15;;;23.10;53.50;;;;;;5055228;28;20353;-82
2023/06/04 07:43:31;;;;;;;1.75;1.00;;;23.10;52.70;;;;;;5068164;28;20228;-82
2023/06/04 07:46:21;;;;;;;1.77;1.00;;;23.60;51.70;;;;;;5059408;28;20275;-82
2023/06/04 07:49:10;;;;;;;4.82;1.10;;;23.80;52.70;;;;;;5046062;28;20290;-82
2023/06/04 07:52:14;;;;;;;2.92;1.10;;;23.80;51.80;;;;;;5080583;28;20234;-82
2023/06/04 07:55:03;;;;;;;3.10;1.23;;;24.30;50.40;;;;;;5070859;28;20305;-83
2023/06/04 07:57:52;;;;;;;4.15;1.30;;;24.40;51.20;;;;;;5059802;28;20891;-82
2023/06/04 08:00:44;;;;;;;2.15;1.20;;;24.70;50.90;;;;;;5079700;28;20344;-83
2023/06/04 08:03:35;;;;;;;2.80;1.52;;;24.50;49.10;;;;;;5082796;28;20216;-83
2023/06/04 08:06:26;;;;;;;3.58;1.30;;;25.10;51.20;;;;;;5067114;28;20634;-83
2023/06/04 08:09:15;;;;;;;1.92;1.10;;;24.90;47.60;;;;;;5066075;28;20224;-83
2023/06/04 08:12:04;;;;;;;3.10;1.20;;;25.20;50.60;;;;;;5054852;28;20337;-83
2023/06/04 08:14:56;;;;;;;2.20;1.60;;;25.80;49.70;;;;;;5078506;28;20215;-83
2023/06/04 08:17:45;;;;;;;3.75;1.20;;;25.10;47.70;;;;;;5071677;28;20737;-83
2023/06/04 08:20:35;;;;;;;3.30;1.08;;;25.20;48.80;;;;;;5063224;28;20239;-83
2023/06/04 08:23:24;;;;;;;2.83;1.35;;;25.20;50.30;;;;;;5053282;28;20255;-84
2023/06/04 08:26:13;;;;;;;1.35;0.90;;;25.60;49.00;;;;;;5065116;28;20918;-83
2023/06/04 08:29:04;;;;;;;4.32;1.30;;;25.00;46.40;;;;;;5086378;28;20258;-82
2023/06/04 08:31:52;;;;;;;1.70;0.98;;;25.40;48.90;;;;;;5056505;28;20230;-83
2023/06/04 08:34:41;;;;;;;1.88;1.15;;;25.20;48.10;;;;;;5054972;28;20370;-83
2023/06/04 08:37:32;;;;;;;2.70;1.08;;;25.30;46.80;;;;;;5051744;28;20713;-83
2023/06/04 08:40:22;;;;;;;2.22;1.00;;;25.10;48.20;;;;;;5053047;28;20227;-84
2023/06/04 08:43:12;;;;;;;2.15;1.00;;;25.90;46.90;;;;;;5052254;28;20235;-84
2023/06/04 08:46:05;;;;;;;2.63;0.88;;;26.10;47.00;;;;;;5052018;28;20216;-84
2023/06/04 08:48:55;;;;;;;5.90;1.00;;;26.50;46.50;;;;;;5061955;28;20218;-83
2023/06/04 08:51:48;;;;;;;2.72;1.40;;;26.30;46.50;;;;;;5044436;28;20267;-84
2023/06/04 08:54:39;;;;;;;2.15;1.15;;;26.70;45.70;;;;;;5050716;28;20381;-85
2023/06/04 08:57:32;;;;;;;4.28;1.00;;;26.90;46.40;;;;;;5050333;28;20287;-83
2023/06/04 09:00:21;;;;;;;1.48;0.90;;;26.20;45.00;;;;;;5051172;28;20335;-83
2023/06/04 09:03:11;;;;;;;2.67;1.10;;;26.20;44.70;;;;;;5055055;28;20247;-84
2023/06/04 09:06:01;;;;;;;1.20;0.93;;;26.80;45.70;;;;;;5049165;28;20232;-83
2023/06/04 09:08:51;;;;;;;1.15;0.90;;;26.50;45.30;;;;;;5066356;28;20231;-84
2023/06/04 09:11:52;;;;;;;3.15;1.30;;;27.10;45.00;;;;;;5053256;28;20476;-84
2023/06/04 09:14:41;;;;;;;5.20;1.10;;;26.70;43.80;;;;;;5067822;28;20220;-83
2023/06/04 09:17:33;;;;;;;2.83;1.27;;;27.20;45.20;;;;;;5044550;28;20839;-84
2023/06/04 09:20:23;;;;;;;4.25;1.20;;;27.50;45.10;;;;;;5070693;28;20223;-84
2023/06/04 09:23:15;;;;;;;2.17;0.95;;;27.90;43.30;;;;;;5071659;28;20212;-84
2023/06/04 09:26:08;;;;;;;1.58;1.10;;;27.60;45.30;;;;;;5057714;28;20241;-84
2023/06/04 09:28:59;;;;;;;2.63;0.90;;;27.50;43.70;;;;;;5083458;28;20234;-84
2023/06/04 09:31:58;;;;;;;2.05;1.30;;;28.30;45.00;;;;;;5053384;28;20219;-84
2023/06/04 09:34:47;;;;;;;1.42;1.00;;;28.90;44.20;;;;;;5069274;28;20220;-84
2023/06/04 09:37:35;;;;;;;1.77;1.02;;;29.50;43.10;;;;;;5045442;28;20227;-86
2023/06/04 09:40:24;;;;;;;1.85;1.15;;;30.30;42.00;;;;;;5046752;28;20230;-83
2023/06/04 09:43:22;;;;;;;4.68;1.27;;;30.90;43.00;;;;;;5084113;28;20225;-84
2023/06/04 09:46:14;;;;;;;2.67;1.20;;;31.10;41.10;;;;;;5075612;28;20212;-84
2023/06/04 09:49:04;;;;;;;3.95;1.20;;;31.80;41.20;;;;;;5054761;28;20224;-85
2023/06/04 09:51:53;;;;;;;2.47;1.10;;;32.70;41.20;;;;;;5044433;28;20680;-85
2023/06/04 09:54:43;;;;;;;2.97;1.10;;;33.60;40.20;;;;;;5079352;28;20227;-85
2023/06/04 09:57:35;;;;;;;4.80;1.27;;;33.90;38.80;;;;;;5078888;28;20311;-85
2023/06/04 10:00:25;;;;;;;5.57;1.27;;;34.70;38.40;;;;;;5085002;28;20226;-84
2023/06/04 10:03:19;;;;;;;1.75;1.33;;;35.30;35.90;;;;;;5079340;28;20722;-85
2023/06/04 10:06:08;;;;;;;2.00;1.10;;;34.60;35.70;;;;;;5076999;28;20231;-85
2023/06/04 10:09:00;;;;;;;2.13;1.15;;;34.00;36.60;;;;;;5070155;28;20226;-85
2023/06/04 10:11:54;;;;;;;5.18;1.48;;;33.70;36.80;;;;;;5087959;28;20277;-85
2023/06/04 10:14:51;;;;;;;2.45;1.30;;;34.70;36.10;;;;;;5083435;28;20242;-84
2023/06/04 10:17:44;;;;;;;1.67;1.35;;;35.10;35.00;;;;;;5066569;28;20255;-86
2023/06/04 10:20:35;;;;;;;2.75;1.10;;;35.50;35.80;;;;;;5073248;28;20413;-84
2023/06/04 10:23:24;;;;;;;2.63;1.13;;;35.90;36.30;;;;;;5053900;28;20840;-83
2023/06/04 10:26:15;;;;;;;1.15;1.05;;;36.50;34.70;;;;;;5065109;28;20257;-85
2023/06/04 10:29:06;;;;;;;3.28;1.27;;;35.30;34.50;;;;;;5076213;28;20929;-85
2023/06/04 10:31:56;;;;;;;2.80;1.00;;;37.20;35.40;;;;;;5066025;28;20653;-85
2023/06/04 10:34:45;;;;;;;1.23;1.10;;;38.20;34.40;;;;;;5074732;28;20719;-84
2023/06/04 10:37:36;;;;;;;1.27;1.10;;;39.10;34.00;;;;;;5069323;28;20257;-85
2023/06/04 10:40:33;;;;;;;2.53;0.90;;;40.00;32.80;;;;;;5080623;28;20776;-85
2023/06/04 10:43:22;;;;;;;1.23;1.00;;;40.60;32.80;;;;;;5081876;28;20314;-85
2023/06/04 10:46:14;;;;;;;1.88;0.98;;;40.30;32.20;;;;;;5064818;28;20263;-85
2023/06/04 10:49:03;;;;;;;5.78;1.10;;;40.40;32.70;;;;;;5084279;28;20229;-85
2023/06/04 10:51:53;;;;;;;4.15;1.10;;;;;;;;;;5076159;28;20802;-84
2023/06/04 10:54:44;;;;;;;1.33;1.10;;;41.30;30.60;;;;;;5069042;28;20697;-86
2023/06/04 10:57:33;;;;;;;2.20;1.10;;;40.70;31.40;;;;;;5066020;28;20234;-86
2023/06/04 11:00:22;;;;;;;3.00;1.10;;;40.60;31.40;;;;;;5082634;28;20234;-86
2023/06/04 11:03:12;;;;;;;2.92;0.90;;;41.30;30.60;;;;;;5073157;28;20223;-85
2023/06/04 11:06:01;;;;;;;3.95;1.10;;;41.60;31.20;;;;;;5066599;28;20281;-86
2023/06/04 11:08:50;;;;;;;1.10;1.00;;;41.50;30.00;;;;;;5076954;28;20232;-86
2023/06/04 11:11:40;;;;;;;2.80;1.00;;;42.00;30.50;;;;;;5075452;28;20219;-87
2023/06/04 11:14:29;;;;;;;1.38;1.05;;;42.60;30.70;;;;;;5065686;28;20308;-86
2023/06/04 11:17:18;;;;;;;2.22;0.80;;;41.00;29.90;;;;;;5054100;28;20253;-85
2023/06/04 11:20:18;;;;;;;2.40;1.00;;;38.30;29.50;;;;;;5078238;28;20226;-86
2023/06/04 11:23:07;;;;;;;1.50;1.10;;;39.50;30.30;;;;;;5053880;28;20319;-86
2023/06/04 11:25:58;;;;;;;3.05;1.23;;;41.40;31.00;;;;;;5053183;28;20234;-87
2023/06/04 11:28:51;;;;;;;1.50;1.13;;;42.60;30.00;;;;;;5040877;28;20241;-86
2023/06/04 11:31:44;;;;;;;1.23;0.95;;;43.00;29.20;;;;;;5048916;28;20801;-88
2023/06/04 11:34:33;;;;;;;2.28;1.00;;;42.70;28.90;;;;;;5060011;28;20228;-87
2023/06/04 11:37:22;;;;;;;2.63;0.88;;;43.70;28.20;;;;;;5071171;28;20610;-87
2023/06/04 11:40:18;;;;;;;3.20;1.00;;;43.20;27.20;;;;;;5069142;28;20356;-86
2023/06/04 11:43:10;;;;;;;1.60;0.82;;;44.70;28.20;;;;;;5066744;28;20365;-87
2023/06/04 11:46:05;;;;;;;3.38;1.00;;;44.20;28.40;;;;;;5069302;28;20217;-86
2023/06/04 11:48:58;;;;;;;1.27;1.10;;;43.80;29.10;;;;;;5089236;28;20249;-86
2023/06/04 11:51:48;;;;;;;2.35;1.00;;;45.70;28.30;;;;;;5084652;28;20799;-87
2023/06/04 11:54:38;;;;;;;2.78;1.13;;;45.20;28.50;;;;;;5069086;28;20227;-86
2023/06/04 11:57:27;;;;;;;2.72;1.00;;;47.80;28.10;;;;;;5079310;28;20224;-85
2023/06/04 12:00:17;;;;;;;0.98;0.80;;;47.00;27.80;;;;;;5065405;28;20904;-86
2023/06/04 12:03:07;;;;;;;3.33;1.10;;;47.30;28.00;;;;;;5071288;28;20222;-86
2023/06/04 12:05:56;;;;;;;1.75;1.00;;;46.40;27.40;;;;;;5077276;28;20358;-87
2023/06/04 12:08:49;;;;;;;1.80;0.82;;;44.90;27.10;;;;;;5061831;28;20223;-87
2023/06/04 12:11:38;;;;;;;1.42;0.88;;;43.70;26.90;;;;;;5067036;28;20228;-86
2023/06/04 12:14:27;;;;;;;4.00;1.10;;;42.80;26.60;;;;;;5091814;28;20227;-87
2023/06/04 12:17:17;;;;;;;4.47;1.00;;;45.80;27.50;;;;;;5077552;28;20218;-87
2023/06/04 12:20:09;;;;;;;0.98;0.90;;;46.10;27.10;;;;;;5075796;28;20369;-88
2023/06/04 12:22:57;;;;;;;1.00;1.00;;;47.60;27.10;;;;;;5080486;28;20252;-86
2023/06/04 12:25:51;;;;;;;1.50;0.95;;;49.70;26.60;;;;;;5061818;28;20224;-88
2023/06/04 12:28:40;;;;;;;4.63;2.17;;;49.50;26.40;;;;;;5069226;28;20718;-88
2023/06/04 12:31:31;;;;;;;3.67;1.50;;;50.40;26.00;;;;;;5068216;28;20667;-88
2023/06/04 12:34:20;;;;;;;1.85;1.00;;;49.70;27.20;;;;;;5066465;28;20376;-88
2023/06/04 12:37:10;;;;;;;2.45;1.10;;;49.20;25.20;;;;;;5058440;28;20212;-86
2023/06/04 12:39:59;;;;;;;3.55;1.00;;;47.90;24.80;;;;;;5058688;28;20228;-87
2023/06/04 12:42:51;;;;;;;1.13;0.90;;;46.20;25.70;;;;;;5062466;28;20307;-87
2023/06/04 12:45:40;;;;;;;3.22;1.10;;;46.00;26.00;;;;;;5051371;28;20219;-87
2023/06/04 12:48:28;;;;;;;2.00;1.15;;;45.10;26.70;;;;;;5048853;28;20235;-87
2023/06/04 12:51:18;;;;;;;1.02;0.98;;;37.80;27.50;;;;;;5051109;28;20528;-87
2023/06/04 12:54:08;;;;;;;0.90;0.90;;;37.30;28.00;;;;;;5080692;28;20238;-87
2023/06/04 12:56:57;;;;;;;2.85;1.10;;;34.20;30.40;;;;;;5073712;28;20234;-84
2023/06/04 12:59:46;;;;;;;3.95;1.23;;;32.10;32.20;;;;;;5085132;28;20281;-85
2023/06/04 13:02:35;;;;;;;1.20;0.85;;;30.60;34.80;;;;;;5078050;28;20389;-86
2023/06/04 13:05:24;;;;;;;2.47;1.10;;;29.70;35.10;;;;;;5068815;28;20215;-85
2023/06/04 13:08:12;;;;;;;2.55;1.08;;;29.20;36.50;;;;;;5085003;28;20362;-87
2023/06/04 13:11:03;;;;;;;1.88;1.23;;;28.70;37.70;;;;;;5083618;28;20238;-86
2023/06/04 13:13:51;;;;;;;1.80;1.20;;;28.40;37.80;;;;;;5059808;28;20317;-86
2023/06/04 13:16:40;;;;;;;3.72;1.10;;;27.90;38.00;;;;;;5079474;28;20268;-85
2023/06/04 13:19:29;;;;;;;1.55;1.10;;;27.30;37.60;;;;;;5079077;28;20262;-85
2023/06/04 13:22:18;;;;;;;2.75;1.40;;;26.90;38.10;;;;;;5083786;28;20223;-84
2023/06/04 13:25:08;;;;;;;2.67;1.08;;;26.90;40.10;;;;;;5067507;28;20230;-84
2023/06/04 13:27:58;;;;;;;1.27;1.13;;;26.80;40.00;;;;;;5075446;28;20207;-85
2023/06/04 13:30:47;;;;;;;2.65;1.10;;;26.70;40.60;;;;;;5064677;28;20304;-85
2023/06/04 13:33:39;;;;;;;2.55;0.98;;;26.10;39.30;;;;;;5044668;28;20318;-84
2023/06/04 13:36:28;;;;;;;2.83;1.20;;;25.90;39.50;;;;;;5065197;28;20318;-85
2023/06/04 13:39:17;;;;;;;2.47;1.05;;;25.90;41.70;;;;;;5065987;28;20606;-85
2023/06/04 13:42:06;;;;;;;2.00;1.17;;;25.60;40.00;;;;;;5060568;28;20230;-84
2023/06/04 13:44:57;;;;;;;4.28;1.00;;;25.70;41.30;;;;;;5083172;28;20347;-84
2023/06/04 13:47:45;;;;;;;1.27;1.10;;;25.70;41.00;;;;;;5044979;28;20622;-82
2023/06/04 13:50:35;;;;;;;2.20;1.23;;;25.70;41.30;;;;;;5059163;28;20928;-83
2023/06/04 13:53:24;;;;;;;4.20;1.35;;;25.80;42.30;;;;;;5065587;28;20251;-84
2023/06/04 13:56:13;;;;;;;2.00;1.10;;;25.60;40.40;;;;;;5076577;28;20247;-84
2023/06/04 13:59:02;;;;;;;4.93;1.02;;;25.30;40.30;;;;;;5079463;28;20348;-84
2023/06/04 14:01:52;;;;;;;2.15;1.20;;;25.20;40.80;;;;;;5068893;28;20227;-84
2023/06/04 14:04:41;;;;;;;3.80;1.25;;;25.20;43.20;;;;;;5082158;28;20297;-84
2023/06/04 14:07:30;;;;;;;2.05;1.38;;;24.90;40.80;;;;;;5067673;28;20222;-84
2023/06/04 14:10:19;;;;;;;2.35;1.30;;;24.90;41.60;;;;;;5045778;28;20227;-84
2023/06/04 14:13:08;;;;;;;4.05;1.30;;;24.70;42.00;;;;;;5065787;28;20320;-83
2023/06/04 14:15:57;;;;;;;1.48;1.17;;;24.50;41.20;;;;;;5082764;28;20259;-82
2023/06/04 14:18:47;;;;;;;3.38;1.10;;;24.60;42.20;;;;;;5059725;28;20298;-84
2023/06/04 14:21:36;;;;;;;2.78;1.38;;;24.70;43.00;;;;;;5049656;28;20790;-84
2023/06/04 14:24:25;;;;;;;2.33;1.08;;;24.60;42.30;;;;;;5050736;28;20225;-84
2023/06/04 14:27:14;;;;;;;4.63;1.27;;;24.60;43.80;;;;;;5055641;28;20261;-82
2023/06/04 14:30:05;;;;;;;2.78;1.17;;;24.40;42.40;;;;;;5056468;28;20313;-83
2023/06/04 14:32:54;;;;;;;4.45;1.35;;;24.30;42.60;;;;;;5056517;28;20232;-84
2023/06/04 14:35:46;;;;;;;2.00;1.20;;;24.40;43.10;;;;;;5053998;28;20235;-84
2023/06/04 14:38:39;;;;;;;2.42;1.20;;;24.00;42.80;;;;;;5057445;28;20405;-83
2023/06/04 14:41:28;;;;;;;2.35;1.13;;;24.10;43.70;;;;;;5034770;28;20311;-84
2023/06/04 14:44:17;;;;;;;1.95;1.27;;;23.90;42.40;;;;;;5061891;28;20612;-84
2023/06/04 14:47:06;;;;;;;3.70;1.38;;;23.70;42.70;;;;;;5076846;28;20238;-84